ENBR Airport Information

Runway Information
Runway 17 Length 9810 ft width 148 ft
Elevation 165 ft Threshold 886 ft Heading 171
Runway 35 Length 9810 ft Width 148 ft
Elevation 146 ft Threshold 889 ft Heading 351
Airport Frequencies
Type APP Name RADAR Frequency 121 MHZ
Type ARR Name ARR Frequency 125 MHZ
Type ATIS Name ATIS Frequency 125.25 MHZ
Type DIR Name DIRECTOR Frequency 118.85 MHZ
Type GND Name GND Frequency 121.9 MHZ
Type TWR Name TWR Frequency 119.1 MHZ
Airport Navaids
Type NDB Name Askoy Frequency 360 KHZ
Type NDB Name Bratta Frequency 336 KHZ
Type TACAN Name Flesland Frequency 114500 KHZ
Type VOR-DME Name Flesland Frequency 115550 KHZ
Type VOR-DME Name Vollo Frequency 114850 KHZ
Airport Weather Information & NOTAM
ADDS - METARS form results

(1903 UTC 22 June 2018)
 
METAR text: ENBR 221850Z 32007KT 9999 FEW025 BKN030 10/05 Q1019 BECMG RA BKN012 RMK WIND 1200FT 33011KT
Conditions at: ENBR (BERGEN/FLESLAND , NO) observed 1850 UTC 22 June 2018
Temperature: 10.0°C (50°F)
Dewpoint: 5.0°C (41°F) [RH = 71%]
Pressure (altimeter): 30.09 inches Hg (1019.0 mb)
Winds: from the NW (320 degrees) at 8 MPH (7 knots; 3.6 m/s)
Visibility: 6 or more miles (10+ km)
Ceiling: 3000 feet AGL
Clouds: few clouds at 2500 feet AGL
broken clouds at 3000 feet AGL
Weather: no significant weather observed at this time

METAR text: ENBR 221820Z 33010KT 300V360 9999 FEW025 BKN043 10/04 Q1019 BECMG RA BKN012 RMK WIND 1200FT 33011KT
Conditions at: ENBR (BERGEN/FLESLAND , NO) observed 1820 UTC 22 June 2018
Temperature: 10.0°C (50°F)
Dewpoint: 4.0°C (39°F) [RH = 66%]
Pressure (altimeter): 30.09 inches Hg (1019.0 mb)
Winds: from the NNW (330 degrees) at 12 MPH (10 knots; 5.2 m/s)
Visibility: 6 or more miles (10+ km)
Ceiling: 4300 feet AGL
Clouds: few clouds at 2500 feet AGL
broken clouds at 4300 feet AGL
Weather: no significant weather observed at this time